Portada
METAR-TAF:

METAR-TAF

Aeroports :

Petrolina, Pernambuco, Brasil

latitud: 09-21S, longitud: 040-33W, altitud: 385 m

Observació

L'informe es va fer fa 49 minuts, a les 17:00 UTC
Vent 4 kt del Sud
Temperatura 29°C
Humitat 45%
Pressió 1015 hPa
Visibilitat 10 km o més
Núvols disperses a una alçada de 3000 ft

METAR: SBPL 291700Z 18004KT 9999 SCT030 29/16 Q1015

Hora: 14:49 (17:49 UTC)

Pronòstic

L'informe es va fer fa 2 hores i 49 minuts, a les 15:00 UTC
Pronòstic vàlid del 29 a les 18 UTC al 30 a les 18 UTC
Vent 9 kt del Sud-Est
Visibilitat 10 km o més
Núvols disperses a una alçada de 2500 ft
Escasses núvols a una alçada de 3000 ft, Cumulus congestus.
Temporalment
l' 29 a les 18 UTC al 29 a les 21 UTC
Núvols disperses a una alçada de 3000 ft
Escasses núvols a una alçada de 3500 ft, Cumulonimbus.
tempesta

TAF: SBPL 291500Z 2918/3018 14009KT 9999 SCT025 FEW030TCU TX29/2918Z TN24/3008Z TEMPO 2918/2921 TS SCT030 FEW035CB RMK PEA

Observacions i pronòstics meteorològics de més de 4000 aeroports (METAR i TAF).

Les estacions disponibles són els punts grocs i vermells al mapa.

Posi el ratolí al punt desitjat per veure el nom de l'estació.

Feu clic per veure les observacions i els pronòstics meteorològics.

Per canviar el mapa: feu clic els botons verds amb una creu de color negre per apropar; al botó verd amb un guió per allunyar la imatge; o en les fletxes verdes per a mapes adjacents.


METAR-TAF: